^^
Station Historical Data
 
Daily Summary for November 23, 2017 Units:  Metric    English   Both
« Previous Day
Next Day »
Daily Weekly Monthly Yearly Custom
  Current: High: Low: Average:
Temperature: 16.5 °C 16.5 °C 3.5 °C 8.5 °C
Dew Point: 8.5 °C 9.2 °C 1.6 °C 4.8 °C
Humidity: 59% 90% 59% 79%
Wind Speed: 0.0km/h 6.4km/h 0.0km/h 3.1km/h
Wind Gust: 3.2km/h 11.3km/h - -
WindCalm - - SSW
Pressure: 1019.5 hPa 1020.9 hPa 1018.2 hPa -
Precipitation: 0.0 mm      
Historical Graphs
 
 
Tabular Data for November 23, 2017
Time Temperature Dew Point Pressure Wind Wind Speed Wind Gust Humidity Rainfall Rate (Hourly) solar Conditions
00:03 6.2 °C 3.0 °C 1018.5 hPa West 4.8 km/h 9.7 km/h 80% 0.0 mm 0 W/m2
00:08 6.2 °C 3.0 °C 1018.5 hPa West 4.8 km/h 8.0 km/h 80% 0.0 mm 0 W/m2
00:13 6.2 °C 3.0 °C 1018.5 hPa West 4.8 km/h 6.4 km/h 80% 0.0 mm 0 W/m2
00:18 6.2 °C 3.0 °C 1018.5 hPa West 4.8 km/h 8.0 km/h 80% 0.0 mm 0 W/m2
00:23 6.2 °C 3.0 °C 1018.2 hPa West 4.8 km/h 8.0 km/h 80% 0.0 mm 0 W/m2
00:46 6.1 °C 2.9 °C 1018.5 hPa West 1.6 km/h 6.4 km/h 80% 0.0 mm 0 W/m2
00:56 5.8 °C 2.6 °C 1018.5 hPa West 4.8 km/h 6.4 km/h 80% 0.0 mm 0 W/m2
01:01 5.8 °C 2.8 °C 1018.5 hPa West 3.2 km/h 6.4 km/h 81% 0.0 mm 0 W/m2
01:06 5.7 °C 2.7 °C 1018.5 hPa West 4.8 km/h 6.4 km/h 81% 0.0 mm 0 W/m2
01:11 5.7 °C 2.7 °C 1018.5 hPa West 4.8 km/h 6.4 km/h 81% 0.0 mm 0 W/m2
01:16 5.6 °C 2.6 °C 1018.5 hPa West 3.2 km/h 6.4 km/h 81% 0.0 mm 0 W/m2
01:26 5.3 °C 2.3 °C 1018.2 hPa West 4.8 km/h 8.0 km/h 81% 0.0 mm 0 W/m2
01:31 5.2 °C 2.4 °C 1018.5 hPa West 4.8 km/h 8.0 km/h 82% 0.0 mm 0 W/m2
01:41 5.1 °C 2.3 °C 1018.5 hPa West 4.8 km/h 8.0 km/h 82% 0.0 mm 0 W/m2
01:47 5.1 °C 2.4 °C 1018.5 hPa West 3.2 km/h 6.4 km/h 83% 0.0 mm 0 W/m2
01:52 5.1 °C 2.4 °C 1018.5 hPa West 3.2 km/h 6.4 km/h 83% 0.0 mm 0 W/m2
01:57 5.1 °C 2.4 °C 1018.5 hPa West 3.2 km/h 6.4 km/h 83% 0.0 mm 0 W/m2
02:02 5.1 °C 2.4 °C 1018.5 hPa Calm   3.2 km/h 83% 0.0 mm 0 W/m2
02:07 5.1 °C 2.6 °C 1018.5 hPa West 1.6 km/h 4.8 km/h 84% 0.0 mm 0 W/m2
02:12 5.1 °C 2.6 °C 1018.5 hPa WSW 1.6 km/h 4.8 km/h 84% 0.0 mm 0 W/m2
02:17 5.0 °C 2.4 °C 1018.5 hPa WSW 3.2 km/h 4.8 km/h 83% 0.0 mm 0 W/m2
02:22 5.0 °C 2.5 °C 1018.5 hPa WSW 1.6 km/h 4.8 km/h 84% 0.0 mm 0 W/m2
02:32 5.0 °C 2.5 °C 1018.5 hPa Calm     84% 0.0 mm 0 W/m2
02:42 4.7 °C 2.1 °C 1018.5 hPa WSW 1.6 km/h 6.4 km/h 83% 0.0 mm 0 W/m2
02:52 4.4 °C 2.0 °C 1018.5 hPa West 3.2 km/h 8.0 km/h 84% 0.0 mm 0 W/m2
03:02 4.4 °C 2.1 °C 1018.5 hPa WSW 4.8 km/h 8.0 km/h 85% 0.0 mm 0 W/m2
03:07 4.4 °C 2.1 °C 1018.8 hPa WSW 4.8 km/h 8.0 km/h 85% 0.0 mm 0 W/m2
03:12 4.4 °C 2.1 °C 1018.5 hPa SW 3.2 km/h 6.4 km/h 85% 0.0 mm 0 W/m2
03:17 4.6 °C 2.3 °C 1018.5 hPa SW 1.6 km/h 4.8 km/h 85% 0.0 mm 0 W/m2
03:22 4.7 °C 2.5 °C 1018.5 hPa SW 1.6 km/h 3.2 km/h 86% 0.0 mm 0 W/m2
03:32 4.7 °C 2.4 °C 1018.5 hPa SW 1.6 km/h 4.8 km/h 85% 0.0 mm 0 W/m2
03:37 4.7 °C 2.4 °C 1018.5 hPa WSW 3.2 km/h 6.4 km/h 85% 0.0 mm 0 W/m2
03:42 4.7 °C 2.5 °C 1018.5 hPa West 3.2 km/h 6.4 km/h 86% 0.0 mm 0 W/m2
03:52 4.6 °C 2.5 °C 1018.5 hPa Calm     86% 0.0 mm 0 W/m2
03:57 4.6 °C 2.5 °C 1018.5 hPa Calm     86% 0.0 mm 0 W/m2
04:02 4.6 °C 2.3 °C 1018.5 hPa West 1.6 km/h 6.4 km/h 85% 0.0 mm 0 W/m2
04:07 4.4 °C 2.3 °C 1018.5 hPa West 1.6 km/h 6.4 km/h 86% 0.0 mm 0 W/m2
04:12 4.4 °C 2.1 °C 1018.5 hPa West 1.6 km/h 8.0 km/h 85% 0.0 mm 0 W/m2
04:18 4.2 °C 1.9 °C 1018.5 hPa WSW 4.8 km/h 8.0 km/h 85% 0.0 mm 0 W/m2
04:23 4.1 °C 1.8 °C 1018.5 hPa WSW 6.4 km/h 8.0 km/h 85% 0.0 mm 0 W/m2
04:28 3.9 °C 1.8 °C 1018.5 hPa WSW 4.8 km/h 8.0 km/h 86% 0.0 mm 0 W/m2
04:53 3.8 °C 1.9 °C 1018.8 hPa West 3.2 km/h 6.4 km/h 87% 0.0 mm 0 W/m2
04:58 3.8 °C 1.9 °C 1018.8 hPa West 3.2 km/h 6.4 km/h 87% 0.0 mm 0 W/m2
05:08 3.7 °C 1.8 °C 1018.5 hPa West 6.4 km/h 8.0 km/h 87% 0.0 mm 0 W/m2
05:13 3.7 °C 1.7 °C 1018.5 hPa West 6.4 km/h 8.0 km/h 87% 0.0 mm 0 W/m2
05:19 3.7 °C 1.7 °C 1018.5 hPa West 4.8 km/h 8.0 km/h 87% 0.0 mm 0 W/m2
05:22 3.6 °C 1.6 °C 1018.5 hPa West 4.8 km/h 6.4 km/h 87% 0.0 mm 0 W/m2
05:24 3.6 °C 1.6 °C 1018.5 hPa West 4.8 km/h 6.4 km/h 87% 0.0 mm 0 W/m2
05:27 3.6 °C 1.6 °C 1018.8 hPa West 4.8 km/h 6.4 km/h 87% 0.0 mm 0 W/m2
05:30 3.6 °C 1.6 °C 1018.8 hPa West 4.8 km/h 8.0 km/h 87% 0.0 mm 0 W/m2
05:35 3.6 °C 1.8 °C 1018.8 hPa West 6.4 km/h 8.0 km/h 88% 0.0 mm 0 W/m2
05:40 3.9 °C 2.1 °C 1018.8 hPa WNW 6.4 km/h 8.0 km/h 88% 0.0 mm 0 W/m2
05:45 3.9 °C 2.1 °C 1018.8 hPa WNW 4.8 km/h 6.4 km/h 88% 0.0 mm 0 W/m2
05:50 4.0 °C 2.2 °C 1018.8 hPa WNW 4.8 km/h 6.4 km/h 88% 0.0 mm 0 W/m2
05:55 4.1 °C 2.2 °C 1018.8 hPa WNW 4.8 km/h 6.4 km/h 88% 0.0 mm 0 W/m2
06:00 4.1 °C 2.3 °C 1018.8 hPa WSW 3.2 km/h 6.4 km/h 88% 0.0 mm 0 W/m2
06:05 4.1 °C 2.3 °C 1018.8 hPa WSW 4.8 km/h 6.4 km/h 88% 0.0 mm 0 W/m2
06:15 3.9 °C 2.0 °C 1018.8 hPa WSW 4.8 km/h 8.0 km/h 87% 0.0 mm 0 W/m2
06:20 3.8 °C 1.9 °C 1018.8 hPa WSW 4.8 km/h 8.0 km/h 87% 0.0 mm 0 W/m2
06:25 3.7 °C 1.8 °C 1018.8 hPa WSW 4.8 km/h 6.4 km/h 87% 0.0 mm 0 W/m2
06:35 3.7 °C 1.9 °C 1018.8 hPa West 4.8 km/h 8.0 km/h 88% 0.0 mm 0 W/m2
06:40 3.7 °C 1.9 °C 1018.8 hPa WNW 4.8 km/h 8.0 km/h 88% 0.0 mm 0 W/m2
06:45 3.8 °C 2.0 °C 1018.8 hPa WNW 1.6 km/h 4.8 km/h 88% 0.0 mm 0 W/m2
06:56 3.8 °C 2.0 °C 1018.8 hPa Calm     88% 0.0 mm 0 W/m2
07:01 3.8 °C 2.0 °C 1018.8 hPa NNW 1.6 km/h 6.4 km/h 88% 0.0 mm 0 W/m2
07:06 3.9 °C 2.1 °C 1019.2 hPa NNW 4.8 km/h 6.4 km/h 88% 0.0 mm 0 W/m2
07:11 3.8 °C 1.9 °C 1019.2 hPa NNW 4.8 km/h 6.4 km/h 87% 0.0 mm 0 W/m2
07:16 3.7 °C 1.8 °C 1019.2 hPa NNW 4.8 km/h 6.4 km/h 87% 0.0 mm 0 W/m2
07:21 3.7 °C 1.9 °C 1019.2 hPa NNW 4.8 km/h 6.4 km/h 88% 0.0 mm 0 W/m2
07:26 3.7 °C 1.9 °C 1019.2 hPa West 4.8 km/h 8.0 km/h 88% 0.0 mm 0 W/m2
07:31 3.6 °C 1.8 °C 1019.2 hPa SW 4.8 km/h 8.0 km/h 88% 0.0 mm 0 W/m2
07:36 3.5 °C 1.7 °C 1019.5 hPa WSW 4.8 km/h 6.4 km/h 88% 0.0 mm 0 W/m2
07:41 3.5 °C 1.7 °C 1019.5 hPa WSW 3.2 km/h 6.4 km/h 88% 0.0 mm 0 W/m2
07:46 3.5 °C 1.7 °C 1019.5 hPa WSW 3.2 km/h 6.4 km/h 88% 0.0 mm 0 W/m2
07:51 3.5 °C 1.7 °C 1019.5 hPa WSW 4.8 km/h 6.4 km/h 88% 0.0 mm 0 W/m2
08:01 3.7 °C 2.1 °C 1019.5 hPa West 4.8 km/h 8.0 km/h 89% 0.0 mm 0 W/m2
08:11 4.3 °C 2.6 °C 1019.9 hPa WNW 3.2 km/h 4.8 km/h 89% 0.0 mm 0 W/m2
08:16 4.4 °C 2.8 °C 1019.9 hPa WNW 1.6 km/h 4.8 km/h 89% 0.0 mm 0 W/m2
08:21 4.8 °C 3.3 °C 1019.9 hPa Calm   3.2 km/h 90% 0.0 mm 0 W/m2
08:36 6.0 °C 4.5 °C 1020.2 hPa WNW 3.2 km/h 4.8 km/h 90% 0.0 mm 0 W/m2
08:41 6.4 °C 4.9 °C 1020.2 hPa WNW 3.2 km/h 4.8 km/h 90% 0.0 mm 0 W/m2
08:46 6.8 °C 5.3 °C 1020.2 hPa WNW 3.2 km/h 4.8 km/h 90% 0.0 mm 0 W/m2
08:56 7.7 °C 6.1 °C 1020.2 hPa WNW 3.2 km/h 4.8 km/h 90% 0.0 mm 0 W/m2
09:01 8.1 °C 6.6 °C 1020.5 hPa WNW 1.6 km/h 4.8 km/h 90% 0.0 mm 0 W/m2
09:06 8.7 °C 7.1 °C 1020.5 hPa NW 1.6 km/h 4.8 km/h 90% 0.0 mm 0 W/m2
09:26 10.4 °C 8.3 °C 1020.5 hPa NE 1.6 km/h 4.8 km/h 87% 0.0 mm 0 W/m2
09:31 10.8 °C 8.4 °C 1020.5 hPa NE 3.2 km/h 6.4 km/h 85% 0.0 mm 0 W/m2
09:36 11.1 °C 8.5 °C 1020.5 hPa ENE 4.8 km/h 6.4 km/h 84% 0.0 mm 0 W/m2
09:41 11.3 °C 8.3 °C 1020.5 hPa ENE 6.4 km/h 11.3 km/h 82% 0.0 mm 0 W/m2
09:46 11.4 °C 8.3 °C 1020.5 hPa ENE 6.4 km/h 11.3 km/h 81% 0.0 mm 0 W/m2
09:51 11.7 °C 8.3 °C 1020.9 hPa ENE 4.8 km/h 8.0 km/h 80% 0.0 mm 0 W/m2
09:56 11.8 °C 8.1 °C 1020.9 hPa ENE 3.2 km/h 6.4 km/h 78% 0.0 mm 0 W/m2
10:01 11.9 °C 8.0 °C 1020.9 hPa ENE 3.2 km/h 6.4 km/h 77% 0.0 mm 0 W/m2
10:11 12.4 °C 7.9 °C 1020.9 hPa ENE 1.6 km/h 4.8 km/h 74% 0.0 mm 0 W/m2
10:16 12.5 °C 7.6 °C 1020.9 hPa ENE 1.6 km/h 6.4 km/h 72% 0.0 mm 0 W/m2
10:31 12.9 °C 7.8 °C 1020.9 hPa Calm   1.6 km/h 71% 0.0 mm 0 W/m2
10:36 13.1 °C 7.8 °C 1020.9 hPa ENE 1.6 km/h 6.4 km/h 70% 0.0 mm 0 W/m2
10:41 13.3 °C 7.7 °C 1020.9 hPa ENE 3.2 km/h 6.4 km/h 69% 0.0 mm 0 W/m2
10:46 13.4 °C 7.6 °C 1020.9 hPa ENE 3.2 km/h 4.8 km/h 68% 0.0 mm 0 W/m2
10:51 13.5 °C 7.7 °C 1020.5 hPa ENE 1.6 km/h 4.8 km/h 68% 0.0 mm 0 W/m2
10:56 13.6 °C 7.5 °C 1020.9 hPa ENE 3.2 km/h 8.0 km/h 67% 0.0 mm 0 W/m2
11:06 13.6 °C 7.8 °C 1020.5 hPa ENE 4.8 km/h 8.0 km/h 68% 0.0 mm 0 W/m2
11:07 13.6 °C 7.8 °C 1020.9 hPa ENE 4.8 km/h 8.0 km/h 68% 0.0 mm 0 W/m2
11:17 13.5 °C 7.7 °C 1020.5 hPa ENE 6.4 km/h 8.0 km/h 68% 0.0 mm 0 W/m2
11:22 13.5 °C 7.7 °C 1020.5 hPa ENE 4.8 km/h 8.0 km/h 68% 0.0 mm 0 W/m2
11:27 13.5 °C 7.9 °C 1020.5 hPa NE 4.8 km/h 8.0 km/h 69% 0.0 mm 0 W/m2
11:32 13.6 °C 7.8 °C 1020.5 hPa NE 3.2 km/h 8.0 km/h 68% 0.0 mm 0 W/m2
11:37 13.8 °C 8.0 °C 1020.5 hPa NE 1.6 km/h 6.4 km/h 68% 0.0 mm 0 W/m2
11:42 14.0 °C 8.2 °C 1020.5 hPa Calm   3.2 km/h 68% 0.0 mm 0 W/m2
11:52 14.4 °C 8.4 °C 1020.5 hPa Calm   4.8 km/h 67% 0.0 mm 0 W/m2
11:57 14.7 °C 8.4 °C 1020.5 hPa ENE 1.6 km/h 4.8 km/h 66% 0.0 mm 0 W/m2
12:07 15.0 °C 8.5 °C 1020.5 hPa East 1.6 km/h 4.8 km/h 65% 0.0 mm 0 W/m2
12:12 15.2 °C 8.6 °C 1020.2 hPa East 1.6 km/h 4.8 km/h 65% 0.0 mm 0 W/m2
12:17 15.3 °C 8.6 °C 1020.5 hPa East 1.6 km/h 4.8 km/h 64% 0.0 mm 0 W/m2
12:22 15.5 °C 8.7 °C 1020.2 hPa East 1.6 km/h 4.8 km/h 64% 0.0 mm 0 W/m2
12:27 15.6 °C 8.8 °C 1020.2 hPa East 1.6 km/h 4.8 km/h 64% 0.0 mm 0 W/m2
12:32 15.6 °C 8.6 °C 1020.2 hPa East 1.6 km/h 4.8 km/h 63% 0.0 mm 0 W/m2
12:57 16.1 °C 9.0 °C 1020.2 hPa East 3.2 km/h 4.8 km/h 63% 0.0 mm 0 W/m2
13:02 16.1 °C 9.0 °C 1020.2 hPa East 3.2 km/h 4.8 km/h 63% 0.0 mm 0 W/m2
13:07 16.1 °C 9.1 °C 1019.9 hPa East 1.6 km/h 4.8 km/h 63% 0.0 mm 0 W/m2
13:12 16.2 °C 9.2 °C 1019.9 hPa East 1.6 km/h 4.8 km/h 63% 0.0 mm 0 W/m2
13:17 16.2 °C 9.2 °C 1019.9 hPa East 1.6 km/h 4.8 km/h 63% 0.0 mm 0 W/m2
13:22 16.2 °C 8.9 °C 1019.9 hPa East 3.2 km/h 4.8 km/h 62% 0.0 mm 0 W/m2
13:27 16.2 °C 8.9 °C 1019.9 hPa East 3.2 km/h 6.4 km/h 62% 0.0 mm 0 W/m2
13:32 16.1 °C 8.8 °C 1019.9 hPa ESE 3.2 km/h 6.4 km/h 62% 0.0 mm 0 W/m2
13:37 16.0 °C 9.2 °C 1019.9 hPa ESE 3.2 km/h 4.8 km/h 64% 0.0 mm 0 W/m2
13:47 16.1 °C 8.8 °C 1019.9 hPa ESE 3.2 km/h 4.8 km/h 62% 0.0 mm 0 W/m2
13:52 16.2 °C 8.9 °C 1019.9 hPa ESE 1.6 km/h 4.8 km/h 62% 0.0 mm 0 W/m2
14:03 16.1 °C 8.8 °C 1019.9 hPa ESE 3.2 km/h 4.8 km/h 62% 0.0 mm 0 W/m2
14:08 16.2 °C 8.9 °C 1019.9 hPa ESE 1.6 km/h 4.8 km/h 62% 0.0 mm 0 W/m2
14:13 16.2 °C 8.6 °C 1019.9 hPa ESE 1.6 km/h 4.8 km/h 61% 0.0 mm 0 W/m2
14:18 16.3 °C 8.7 °C 1019.5 hPa Calm   3.2 km/h 61% 0.0 mm 0 W/m2
14:23 16.3 °C 8.7 °C 1019.9 hPa Calm   3.2 km/h 61% 0.0 mm 0 W/m2
14:28 16.4 °C 8.8 °C 1019.5 hPa Calm   3.2 km/h 61% 0.0 mm 0 W/m2
14:43 16.3 °C 8.7 °C 1019.5 hPa SE 1.6 km/h 4.8 km/h 61% 0.0 mm 0 W/m2
14:48 16.3 °C 8.8 °C 1019.5 hPa SE 1.6 km/h 4.8 km/h 61% 0.0 mm 0 W/m2
14:54 16.4 °C 8.6 °C 1019.5 hPa SE 1.6 km/h 3.2 km/h 60% 0.0 mm 0 W/m2
14:59 16.4 °C 8.4 °C 1019.5 hPa SE 1.6 km/h 3.2 km/h 59% 0.0 mm 0 W/m2
15:04 16.5 °C 8.5 °C 1019.5 hPa Calm   3.2 km/h 59% 0.0 mm 0 W/m2
Asprovalta, Central Macedonia, GREECE
Compliments of Weather Underground - 1.75 mb